Mid Fortune — ZGCG8 — position and weather

sailwx.info

Track history (hours):
 
Tides and Currents Weather Stations Pressure Air Temp Water Temp Dewpoint Dewpoint Depression Visibility Wind Speed Wind Dir Waves Ship Positions

Mid Fortune

Last reported at 2014-Oct-31 07:33 UTC. Time now 2014-Oct-31 08:19 UTC.
Position N 51°24' E 004°02'.

Length 147 m; draft 7.4 m.

Type: Tanker. MMSI: 319182000.

Date/timePositionNaut miles runAvg speedWind from/ knotsBaromVisibWave heightAir tempDewpointWater temp
2014-Oct-31 07:33N 51°24' E 004°02'9 9.1
2014-Oct-31 06:33N 51°21' E 004°16'1 1.0
2014-Oct-31 05:34N 51°21' E 004°18'6 5.4
2014-Oct-31 04:31N 51°16' E 004°22'0 0.1
2014-Oct-31 03:28N 51°16' E 004°22'0 0.0
2014-Oct-31 02:31N 51°16' E 004°22'0 0.0
2014-Oct-31 01:31N 51°16' E 004°22'0 0.0
2014-Oct-31 00:31N 51°16' E 004°22'0 0.0
2014-Oct-30 23:31N 51°16' E 004°22'0 0.0
2014-Oct-30 22:28N 51°16' E 004°22'0 0.0
2014-Oct-30 21:28N 51°16' E 004°22'0 0.0
2014-Oct-30 20:31N 51°16' E 004°22'0 0.0
2014-Oct-30 19:28N 51°16' E 004°22'0 0.0
2014-Oct-30 18:22N 51°16' E 004°22'0 0.0
2014-Oct-30 17:31N 51°16' E 004°22'0 0.0
2014-Oct-30 16:28N 51°16' E 004°22'0 0.0
2014-Oct-30 15:28N 51°16' E 004°22'0 0.0
2014-Oct-30 14:31N 51°16' E 004°22'0 0.0
2014-Oct-30 13:28N 51°16' E 004°22'0 0.0
2014-Oct-30 12:31N 51°16' E 004°22'0 0.0
2014-Oct-30 11:31N 51°16' E 004°22'0 0.0
2014-Oct-30 10:31N 51°16' E 004°22'0 0.0
2014-Oct-30 09:31N 51°16' E 004°22'0 0.0
2014-Oct-30 08:31N 51°16' E 004°22'0 0.0
2014-Oct-30 07:31N 51°16' E 004°22'0 0.0
2014-Oct-30 06:28N 51°16' E 004°22'0 0.0
2014-Oct-30 05:31N 51°16' E 004°22'0 0.0
2014-Oct-30 04:31N 51°16' E 004°22'0 0.0
2014-Oct-30 03:31N 51°16' E 004°22'0 0.0
2014-Oct-30 02:33N 51°16' E 004°22'3 3.2
2014-Oct-30 01:33N 51°18' E 004°19'3 2.8
2014-Oct-30 00:34N 51°21' E 004°17'0 0.2
2014-Oct-29 23:34N 51°21' E 004°17'2 2.0
2014-Oct-29 22:34N 51°22' E 004°14'7 7.0
2014-Oct-29 21:33N 51°23' E 004°03'5 4.9
2014-Oct-29 20:33N 51°22' E 003°55'8 7.9
2014-Oct-29 19:33N 51°23' E 003°42'7 6.8
2014-Oct-29 18:33N 51°25' E 003°32'1111.5
2014-Oct-29 17:34N 51°24' E 003°14'1313.3
2014-Oct-29 16:33N 51°22' E 002°53'9 8.9
2014-Oct-29 15:33N 51°22' E 002°38'4 4.4
2014-Oct-29 14:34N 51°22' E 002°31'1 1.5
2014-Oct-29 13:33N 51°22' E 002°34'4 4.1
2014-Oct-29 12:33N 51°21' E 002°27'5 4.5
2014-Oct-29 11:33N 51°19' E 002°21'5 4.9
2014-Oct-29 10:33N 51°17' E 002°14'4 4.4
2014-Oct-29 09:32N 51°14' E 002°08'1010.8
2014-Oct-29 08:34N 51°09' E 001°53'1110.6
2014-Oct-29 07:33N 51°02' E 001°41'5011.6
2014-Oct-29 03:14N 50°27' E 000°45'24413.6
2014-Oct-28 09:18N 48°59' W 005°08'1514.5
2014-Oct-28 08:16N 48°52' W 005°28'1114.4
2014-Oct-28 07:32N 48°45' W 005°40'62813.6
2014-Oct-26 09:12N 38°45' W 009°57'913.2
2014-Oct-26 08:33N 38°37' W 009°55'2913.4
2014-Oct-26 06:24N 38°09' W 009°47'1113.5
2014-Oct-26 05:33N 37°57' W 009°44'1413.6
2014-Oct-26 04:33N 37°44' W 009°39'1513.7
2014-Oct-26 03:26N 37°29' W 009°35'4113.7
2014-Oct-26 00:25N 36°49' W 009°21'2713.1
2014-Oct-25 22:21N 36°35' W 008°52'1114.0
2014-Oct-25 21:33N 36°32' W 008°39'15714.2
2014-Oct-25 10:32N 35°59' W 005°29'1212.5
2014-Oct-25 09:33N 36°03' W 005°15'17813.7
2014-Oct-24 20:33N 36°43' W 001°40'1514.6
2014-Oct-24 19:33N 36°51' W 001°25'1414.2
2014-Oct-24 18:33N 36°59' W 001°10'1414.3
2014-Oct-24 17:33N 37°07' W 000°55'1414.1
2014-Oct-24 16:33N 37°14' W 000°40'1414.2
2014-Oct-24 15:33N 37°23' W 000°27'1414.2
2014-Oct-24 14:33N 37°35' W 000°17'1414.4
2014-Oct-24 13:33N 37°47' W 000°07'1514.4
2014-Oct-24 12:32N 37°60' E 000°04'1514.5
2014-Oct-24 11:29N 38°12' E 000°14'  
Track history (hours):
 
Tides and Currents Weather Stations Pressure Air Temp Water Temp Dewpoint Dewpoint Depression Visibility Wind Speed Wind Dir Waves Ship Positions

Mid Fortune

Last reported at 2014-Oct-31 07:33 UTC. Time now 2014-Oct-31 08:19 UTC.
Position N 51°24' E 004°02'.

Length 147 m; draft 7.4 m.

Type: Tanker. MMSI: 319182000.

Date/timePositionNaut miles runAvg speedWind from/ knotsBaromVisibWave heightAir tempDewpointWater temp
2014-Oct-31 07:33N 51°24' E 004°02'9 9.1
2014-Oct-31 06:33N 51°21' E 004°16'1 1.0
2014-Oct-31 05:34N 51°21' E 004°18'6 5.4
2014-Oct-31 04:31N 51°16' E 004°22'0 0.1
2014-Oct-31 03:28N 51°16' E 004°22'0 0.0
2014-Oct-31 02:31N 51°16' E 004°22'0 0.0
2014-Oct-31 01:31N 51°16' E 004°22'0 0.0
2014-Oct-31 00:31N 51°16' E 004°22'0 0.0
2014-Oct-30 23:31N 51°16' E 004°22'0 0.0
2014-Oct-30 22:28N 51°16' E 004°22'0 0.0
2014-Oct-30 21:28N 51°16' E 004°22'0 0.0
2014-Oct-30 20:31N 51°16' E 004°22'0 0.0
2014-Oct-30 19:28N 51°16' E 004°22'0 0.0
2014-Oct-30 18:22N 51°16' E 004°22'0 0.0
2014-Oct-30 17:31N 51°16' E 004°22'0 0.0
2014-Oct-30 16:28N 51°16' E 004°22'0 0.0
2014-Oct-30 15:28N 51°16' E 004°22'0 0.0
2014-Oct-30 14:31N 51°16' E 004°22'0 0.0
2014-Oct-30 13:28N 51°16' E 004°22'0 0.0
2014-Oct-30 12:31N 51°16' E 004°22'0 0.0
2014-Oct-30 11:31N 51°16' E 004°22'0 0.0
2014-Oct-30 10:31N 51°16' E 004°22'0 0.0
2014-Oct-30 09:31N 51°16' E 004°22'0 0.0
2014-Oct-30 08:31N 51°16' E 004°22'0 0.0
2014-Oct-30 07:31N 51°16' E 004°22'0 0.0
2014-Oct-30 06:28N 51°16' E 004°22'0 0.0
2014-Oct-30 05:31N 51°16' E 004°22'0 0.0
2014-Oct-30 04:31N 51°16' E 004°22'0 0.0
2014-Oct-30 03:31N 51°16' E 004°22'0 0.0
2014-Oct-30 02:33N 51°16' E 004°22'3 3.2
2014-Oct-30 01:33N 51°18' E 004°19'3 2.8
2014-Oct-30 00:34N 51°21' E 004°17'0 0.2
2014-Oct-29 23:34N 51°21' E 004°17'2 2.0
2014-Oct-29 22:34N 51°22' E 004°14'7 7.0
2014-Oct-29 21:33N 51°23' E 004°03'5 4.9
2014-Oct-29 20:33N 51°22' E 003°55'8 7.9
2014-Oct-29 19:33N 51°23' E 003°42'7 6.8
2014-Oct-29 18:33N 51°25' E 003°32'1111.5
2014-Oct-29 17:34N 51°24' E 003°14'1313.3
2014-Oct-29 16:33N 51°22' E 002°53'9 8.9
2014-Oct-29 15:33N 51°22' E 002°38'4 4.4
2014-Oct-29 14:34N 51°22' E 002°31'1 1.5
2014-Oct-29 13:33N 51°22' E 002°34'4 4.1
2014-Oct-29 12:33N 51°21' E 002°27'5 4.5
2014-Oct-29 11:33N 51°19' E 002°21'5 4.9
2014-Oct-29 10:33N 51°17' E 002°14'4 4.4
2014-Oct-29 09:32N 51°14' E 002°08'1010.8
2014-Oct-29 08:34N 51°09' E 001°53'1110.6
2014-Oct-29 07:33N 51°02' E 001°41'5011.6
2014-Oct-29 03:14N 50°27' E 000°45'24413.6
2014-Oct-28 09:18N 48°59' W 005°08'1514.5
2014-Oct-28 08:16N 48°52' W 005°28'1114.4
2014-Oct-28 07:32N 48°45' W 005°40'62813.6
2014-Oct-26 09:12N 38°45' W 009°57'913.2
2014-Oct-26 08:33N 38°37' W 009°55'2913.4
2014-Oct-26 06:24N 38°09' W 009°47'1113.5
2014-Oct-26 05:33N 37°57' W 009°44'1413.6
2014-Oct-26 04:33N 37°44' W 009°39'1513.7
2014-Oct-26 03:26N 37°29' W 009°35'4113.7
2014-Oct-26 00:25N 36°49' W 009°21'2713.1
2014-Oct-25 22:21N 36°35' W 008°52'1114.0
2014-Oct-25 21:33N 36°32' W 008°39'15714.2
2014-Oct-25 10:32N 35°59' W 005°29'1212.5
2014-Oct-25 09:33N 36°03' W 005°15'17813.7
2014-Oct-24 20:33N 36°43' W 001°40'1514.6
2014-Oct-24 19:33N 36°51' W 001°25'1414.2
2014-Oct-24 18:33N 36°59' W 001°10'1414.3
2014-Oct-24 17:33N 37°07' W 000°55'1414.1
2014-Oct-24 16:33N 37°14' W 000°40'1414.2
2014-Oct-24 15:33N 37°23' W 000°27'1414.2
2014-Oct-24 14:33N 37°35' W 000°17'1414.4
2014-Oct-24 13:33N 37°47' W 000°07'1514.4
2014-Oct-24 12:32N 37°60' E 000°04'1514.5
2014-Oct-24 11:29N 38°12' E 000°14'  

Dump ship's entire track history